createdAt,value
2023-05-13T00:02:14.687Z,84.57
2023-05-13T00:04:42.609Z,84.10
2023-05-13T00:07:10.423Z,86.25
2023-05-13T00:09:38.247Z,86.38
2023-05-13T00:12:06.558Z,86.44
2023-05-13T00:14:34.440Z,88.39
2023-05-13T00:17:04.765Z,87.67
2023-05-13T00:19:33.897Z,87.13
2023-05-13T00:22:01.664Z,88.16
2023-05-13T00:24:29.547Z,88.39
2023-05-13T00:26:57.363Z,87.76
2023-05-13T00:29:25.230Z,86.42
2023-05-13T00:31:53.241Z,86.75
2023-05-13T00:34:21.100Z,88.56
2023-05-13T00:36:52.381Z,88.35
2023-05-13T00:39:20.301Z,87.90
2023-05-13T00:41:48.318Z,87.88
2023-05-13T00:44:16.033Z,88.37
2023-05-13T00:46:44.157Z,88.87
2023-05-13T00:49:15.042Z,88.88
2023-05-13T00:51:42.885Z,89.96
2023-05-13T00:54:12.091Z,89.81
2023-05-13T00:56:39.966Z,90.16
2023-05-13T00:59:07.761Z,90.24
2023-05-13T01:01:53.144Z,90.38
2023-05-13T01:04:32.000Z,89.50
2023-05-13T01:07:10.053Z,88.14
2023-05-13T01:09:55.226Z,86.43
2023-05-13T01:12:30.914Z,86.32
2023-05-13T01:15:04.007Z,86.14
2023-05-13T01:17:38.832Z,85.62
2023-05-13T01:20:09.262Z,85.50
2023-05-13T01:22:40.568Z,84.08
2023-05-13T01:25:09.134Z,85.39
2023-05-13T01:27:37.390Z,84.05
2023-05-13T01:30:09.359Z,83.47
2023-05-13T01:32:38.431Z,83.13
2023-05-13T01:35:08.509Z,83.65
2023-05-13T01:37:42.598Z,83.83
2023-05-13T01:40:24.368Z,85.49
2023-05-13T01:42:59.806Z,86.92
2023-05-13T01:45:29.059Z,88.30
2023-05-13T01:47:57.434Z,88.80
2023-05-13T01:50:27.261Z,90.74
2023-05-13T01:52:57.401Z,91.81
2023-05-13T01:55:25.407Z,91.53
2023-05-13T01:57:53.236Z,89.77
2023-05-13T02:00:21.916Z,89.18
2023-05-13T02:02:50.998Z,88.80
2023-05-13T02:05:19.317Z,87.12
2023-05-13T02:07:47.454Z,88.31
2023-05-13T02:10:16.683Z,88.29
2023-05-13T02:12:45.224Z,89.55
2023-05-13T02:15:14.124Z,89.86
2023-05-13T02:17:42.369Z,89.13
2023-05-13T02:20:11.628Z,88.51
2023-05-13T02:22:39.409Z,88.42
2023-05-13T02:25:09.398Z,88.32
2023-05-13T02:27:40.866Z,89.20
2023-05-13T02:30:09.650Z,88.41
2023-05-13T02:32:42.670Z,87.51
2023-05-13T02:35:11.348Z,87.11
2023-05-13T02:37:39.338Z,86.21
2023-05-13T02:40:08.704Z,85.78
2023-05-13T02:42:36.576Z,85.46
2023-05-13T02:45:06.241Z,84.24
2023-05-13T02:47:36.337Z,84.19
2023-05-13T02:50:07.981Z,84.28
2023-05-13T02:52:40.104Z,83.62
2023-05-13T02:55:09.760Z,84.41
2023-05-13T02:57:38.510Z,86.55
2023-05-13T03:00:12.248Z,86.51
2023-05-13T03:02:40.335Z,85.57
2023-05-13T03:05:09.432Z,84.82
2023-05-13T03:07:37.558Z,84.65
2023-05-13T03:10:06.980Z,84.07
2023-05-13T03:12:35.044Z,83.35
2023-05-13T03:15:04.242Z,85.06
2023-05-13T03:17:33.560Z,84.12
2023-05-13T03:20:04.205Z,83.74
2023-05-13T03:22:33.341Z,82.99
2023-05-13T03:25:01.247Z,84.48
2023-05-13T03:27:36.334Z,86.27
2023-05-13T03:30:04.369Z,86.67
2023-05-13T03:32:34.413Z,86.74
2023-05-13T03:35:02.223Z,88.38
2023-05-13T03:37:31.570Z,89.45
2023-05-13T03:39:59.437Z,90.05
2023-05-13T03:42:27.873Z,91.58
2023-05-13T03:44:57.997Z,91.07
2023-05-13T03:47:26.634Z,89.67
2023-05-13T03:50:00.189Z,89.45
2023-05-13T03:52:28.120Z,88.42
2023-05-13T03:54:55.985Z,88.00
2023-05-13T03:57:23.872Z,86.76
2023-05-13T03:59:53.811Z,85.45
2023-05-13T04:02:21.817Z,83.97
2023-05-13T04:04:52.352Z,82.46
2023-05-13T04:07:21.828Z,82.73
2023-05-13T04:09:49.594Z,83.82
2023-05-13T04:12:18.179Z,83.13
2023-05-13T04:14:46.763Z,82.66
2023-05-13T04:17:14.875Z,82.60
2023-05-13T04:19:42.646Z,82.99
2023-05-13T04:22:10.415Z,81.67
2023-05-13T04:24:39.510Z,82.03
2023-05-13T04:27:07.353Z,80.93
2023-05-13T04:29:35.306Z,81.50
2023-05-13T04:32:03.452Z,83.30
2023-05-13T04:34:31.567Z,83.31
2023-05-13T04:36:59.449Z,84.96
2023-05-13T04:39:27.292Z,84.82
2023-05-13T04:41:56.756Z,84.17
2023-05-13T04:44:25.248Z,84.16
2023-05-13T04:46:53.142Z,84.00
2023-05-13T04:49:20.916Z,83.74
2023-05-13T04:51:49.602Z,82.69
2023-05-13T04:54:18.262Z,84.10
2023-05-13T04:56:46.577Z,83.36
2023-05-13T04:59:15.827Z,82.19
2023-05-13T05:01:43.744Z,82.95
2023-05-13T05:04:12.765Z,82.51
2023-05-13T05:06:41.681Z,83.05
2023-05-13T05:09:09.690Z,81.47
2023-05-13T05:11:37.562Z,81.16
2023-05-13T05:14:05.589Z,81.84
2023-05-13T05:16:34.921Z,80.88
2023-05-13T05:19:02.933Z,79.54
2023-05-13T05:21:32.025Z,78.61
2023-05-13T05:24:01.860Z,80.38
2023-05-13T05:26:29.732Z,80.55
2023-05-13T05:28:57.546Z,80.98
2023-05-13T05:31:27.145Z,81.32
2023-05-13T05:33:57.233Z,80.43
2023-05-13T05:36:25.108Z,80.43
2023-05-13T05:38:52.898Z,79.32
2023-05-13T05:41:22.869Z,80.13
2023-05-13T05:43:50.924Z,79.46
2023-05-13T05:46:20.401Z,78.46
2023-05-13T05:48:51.511Z,79.48
2023-05-13T05:51:25.212Z,79.59
2023-05-13T05:54:00.038Z,80.17
2023-05-13T05:56:34.700Z,80.77
2023-05-13T05:59:02.509Z,80.66
2023-05-13T06:01:33.703Z,80.31
2023-05-13T06:04:01.993Z,80.38
2023-05-13T06:06:35.256Z,81.38
2023-05-13T06:09:03.918Z,81.40
2023-05-13T06:11:31.796Z,82.77
2023-05-13T06:13:59.613Z,82.43
2023-05-13T06:16:28.351Z,81.84
2023-05-13T06:18:56.350Z,80.76
2023-05-13T06:21:24.205Z,81.90
2023-05-13T06:23:54.329Z,82.89
2023-05-13T06:26:22.787Z,81.67
2023-05-13T06:28:50.617Z,80.62
2023-05-13T06:31:18.871Z,80.19
2023-05-13T06:33:47.606Z,81.59
2023-05-13T06:36:15.364Z,79.63
2023-05-13T06:38:43.262Z,79.51
2023-05-13T06:41:15.285Z,80.66
2023-05-13T06:43:45.577Z,82.17
2023-05-13T06:46:21.353Z,81.98
2023-05-13T06:48:52.299Z,80.48
2023-05-13T06:51:20.345Z,80.15
2023-05-13T06:53:48.320Z,79.56
2023-05-13T06:56:17.589Z,77.83
2023-05-13T06:58:45.402Z,78.82
2023-05-13T07:01:13.373Z,76.96
2023-05-13T07:03:42.103Z,78.81
2023-05-13T07:06:10.030Z,77.06
2023-05-13T07:08:48.180Z,80.94
2023-05-13T07:11:17.422Z,81.47
2023-05-13T07:13:45.329Z,80.69
2023-05-13T07:16:13.170Z,79.71
2023-05-13T07:18:41.055Z,80.60
2023-05-13T07:21:08.874Z,81.26
2023-05-13T07:23:36.858Z,82.55
2023-05-13T07:26:05.012Z,82.31
2023-05-13T07:28:34.395Z,80.54
2023-05-13T07:31:02.332Z,79.80
2023-05-13T07:33:30.242Z,80.08
2023-05-13T07:35:58.113Z,77.46
2023-05-13T07:38:25.872Z,78.12
2023-05-13T07:40:53.723Z,79.42
2023-05-13T07:43:23.954Z,79.86
2023-05-13T07:45:53.324Z,79.61
2023-05-13T07:48:21.155Z,80.09
2023-05-13T07:50:48.904Z,78.10
2023-05-13T07:53:19.063Z,78.58
2023-05-13T07:55:47.765Z,78.98
2023-05-13T07:58:15.717Z,78.99
2023-05-13T08:00:43.538Z,79.63
2023-05-13T08:03:12.806Z,80.35
2023-05-13T08:05:40.751Z,80.23
2023-05-13T08:08:08.734Z,80.14
2023-05-13T08:10:36.582Z,82.28
2023-05-13T08:13:04.386Z,81.05
2023-05-13T08:15:32.187Z,81.80
2023-05-13T08:18:00.429Z,82.44
2023-05-13T08:20:30.643Z,81.25
2023-05-13T08:22:58.807Z,80.17
2023-05-13T08:25:32.899Z,80.79
2023-05-13T08:28:00.980Z,79.25
2023-05-13T08:30:28.825Z,79.92
2023-05-13T08:33:01.148Z,79.30
2023-05-13T08:35:32.275Z,79.56
2023-05-13T08:38:03.774Z,78.62
2023-05-13T08:40:32.128Z,78.57
2023-05-13T08:43:02.341Z,78.03
2023-05-13T08:45:31.310Z,76.73
2023-05-13T08:48:01.245Z,78.80
2023-05-13T08:50:34.841Z,77.16
2023-05-13T08:53:04.816Z,77.99
2023-05-13T08:55:32.854Z,78.89
2023-05-13T08:58:00.711Z,78.26
2023-05-13T09:00:30.880Z,76.25
2023-05-13T09:02:58.748Z,77.35
2023-05-13T09:05:27.395Z,77.74
2023-05-13T09:07:57.756Z,78.25
2023-05-13T09:10:25.772Z,76.44
2023-05-13T09:12:54.891Z,74.79
2023-05-13T09:15:24.711Z,74.24
2023-05-13T09:17:57.041Z,75.76
2023-05-13T09:20:26.694Z,76.14
2023-05-13T09:23:08.813Z,76.07
2023-05-13T09:25:38.347Z,74.24
2023-05-13T09:28:09.359Z,76.42
2023-05-13T09:30:40.341Z,76.00
2023-05-13T09:33:10.284Z,75.65
2023-05-13T09:35:40.830Z,74.46
2023-05-13T09:38:18.534Z,74.02
2023-05-13T09:40:56.667Z,74.83
2023-05-13T09:43:27.123Z,72.19
2023-05-13T09:45:55.584Z,73.42
2023-05-13T09:48:26.713Z,73.73
2023-05-13T09:50:58.068Z,74.49
2023-05-13T09:53:28.502Z,74.55
2023-05-13T09:55:59.418Z,73.36
2023-05-13T09:58:29.132Z,72.62
2023-05-13T10:00:57.646Z,74.41
2023-05-13T10:03:26.223Z,75.33
2023-05-13T10:05:57.858Z,74.39
2023-05-13T10:08:29.161Z,74.55
2023-05-13T10:10:57.553Z,76.12
2023-05-13T10:13:26.305Z,75.95
2023-05-13T10:15:55.612Z,75.64
2023-05-13T10:18:24.921Z,76.42
2023-05-13T10:20:54.162Z,75.72
2023-05-13T10:23:23.690Z,76.34
2023-05-13T10:25:55.148Z,76.64
2023-05-13T10:28:23.116Z,76.40
2023-05-13T10:30:53.662Z,75.79
2023-05-13T10:33:22.723Z,75.35
2023-05-13T10:36:03.046Z,76.01
2023-05-13T10:38:45.704Z,74.75
2023-05-13T10:41:32.201Z,74.28
2023-05-13T10:44:00.574Z,76.41
2023-05-13T10:46:28.706Z,74.98
2023-05-13T10:48:59.422Z,76.19
2023-05-13T10:51:27.895Z,76.69
2023-05-13T10:53:58.513Z,76.66
2023-05-13T10:56:29.628Z,76.16
2023-05-13T10:59:02.622Z,78.55
2023-05-13T11:01:36.236Z,78.16
2023-05-13T11:04:06.214Z,77.83
2023-05-13T11:06:35.837Z,77.74
2023-05-13T11:09:06.963Z,75.03
2023-05-13T11:11:37.165Z,76.46
2023-05-13T11:14:26.970Z,73.83
2023-05-13T11:16:56.239Z,71.43
2023-05-13T11:19:27.175Z,72.82
2023-05-13T11:21:57.291Z,72.15
2023-05-13T11:24:26.121Z,74.67
2023-05-13T11:26:58.999Z,75.46
2023-05-13T11:29:31.351Z,74.97
2023-05-13T11:32:01.774Z,75.77
2023-05-13T11:34:33.149Z,75.75
2023-05-13T11:37:15.520Z,76.24
2023-05-13T11:39:44.498Z,74.57
2023-05-13T11:42:14.433Z,75.68
2023-05-13T11:44:47.625Z,74.61
2023-05-13T11:47:27.750Z,73.88
2023-05-13T11:49:57.306Z,71.16
2023-05-13T11:52:26.210Z,74.04
2023-05-13T11:54:55.398Z,72.61
2023-05-13T11:57:26.246Z,72.16
2023-05-13T11:59:56.470Z,72.95
2023-05-13T12:02:25.472Z,72.86
2023-05-13T12:04:53.671Z,73.59
2023-05-13T12:07:25.561Z,72.00
2023-05-13T12:09:54.784Z,72.94
2023-05-13T12:12:24.524Z,71.73
2023-05-13T12:14:52.982Z,71.83
2023-05-13T12:17:22.499Z,71.33
2023-05-13T12:20:10.584Z,71.69
2023-05-13T12:22:50.165Z,71.37
2023-05-13T12:25:41.837Z,70.13
2023-05-13T12:28:17.721Z,70.49
2023-05-13T12:30:51.541Z,71.62
2023-05-13T12:33:20.999Z,70.04
2023-05-13T12:35:50.446Z,70.06
2023-05-13T12:38:19.960Z,70.07
2023-05-13T12:40:48.485Z,69.32
2023-05-13T12:43:20.181Z,68.26
2023-05-13T12:45:53.611Z,66.65
2023-05-13T12:48:24.400Z,67.14
2023-05-13T12:50:52.500Z,68.88
2023-05-13T12:53:20.286Z,70.32
2023-05-13T12:55:48.219Z,68.99
2023-05-13T12:58:16.301Z,67.52
2023-05-13T13:00:46.549Z,63.21
2023-05-13T13:03:14.446Z,62.88
2023-05-13T13:05:42.488Z,61.41
2023-05-13T13:08:10.465Z,63.84
2023-05-13T13:10:38.252Z,66.14
2023-05-13T13:13:06.397Z,63.22
2023-05-13T13:15:34.516Z,62.53
2023-05-13T13:18:03.784Z,61.22
2023-05-13T13:20:31.606Z,60.71
2023-05-13T13:22:59.840Z,57.97
2023-05-13T13:25:28.842Z,59.91
2023-05-13T13:27:56.862Z,60.22
2023-05-13T13:30:24.708Z,67.28
2023-05-13T13:32:52.681Z,69.05
2023-05-13T13:35:24.600Z,65.61
2023-05-13T13:37:54.272Z,65.57
2023-05-13T13:40:22.816Z,68.07
2023-05-13T13:42:50.777Z,63.27
2023-05-13T13:45:18.819Z,60.42
2023-05-13T13:47:46.808Z,63.94
2023-05-13T13:50:14.731Z,64.74
2023-05-13T13:52:44.125Z,65.41
2023-05-13T13:55:12.448Z,62.59
2023-05-13T13:57:40.276Z,60.44
2023-05-13T14:00:09.486Z,61.86
2023-05-13T14:02:37.862Z,61.17
2023-05-13T14:05:10.103Z,65.56
2023-05-13T14:07:38.152Z,64.71
2023-05-13T14:10:09.009Z,62.57
2023-05-13T14:12:36.938Z,63.79
2023-05-13T14:15:05.886Z,64.96
2023-05-13T14:17:34.220Z,63.63
2023-05-13T14:20:02.162Z,65.18
2023-05-13T14:22:30.090Z,63.94
2023-05-13T14:24:57.931Z,65.96
2023-05-13T14:27:27.174Z,67.20
2023-05-13T14:29:55.684Z,66.57
2023-05-13T14:32:30.540Z,64.51
2023-05-13T14:35:01.093Z,62.65
2023-05-13T14:37:28.988Z,61.45
2023-05-13T14:39:57.346Z,62.05
2023-05-13T14:42:26.903Z,61.29
2023-05-13T14:44:54.773Z,60.95
2023-05-13T14:47:22.583Z,60.04
2023-05-13T14:49:50.756Z,60.17
2023-05-13T14:52:19.210Z,61.17
2023-05-13T14:54:47.369Z,61.83
2023-05-13T14:57:15.567Z,61.56
2023-05-13T14:59:44.843Z,60.43
2023-05-13T15:02:13.960Z,60.85
2023-05-13T15:04:42.040Z,60.36
2023-05-13T15:07:09.989Z,60.04
2023-05-13T15:09:37.737Z,60.42
2023-05-13T15:12:06.233Z,61.71
2023-05-13T15:14:34.063Z,60.85
2023-05-13T15:17:03.515Z,60.79
2023-05-13T15:19:31.687Z,61.85
2023-05-13T15:21:59.441Z,61.50
2023-05-13T15:24:27.240Z,60.44
2023-05-13T15:26:55.187Z,61.43
2023-05-13T15:29:23.116Z,61.09
2023-05-13T15:31:51.756Z,61.28
2023-05-13T15:34:21.008Z,61.62
2023-05-13T15:36:48.817Z,61.60
2023-05-13T15:39:17.561Z,61.48
2023-05-13T15:41:45.949Z,62.39
2023-05-13T15:44:13.914Z,62.66
2023-05-13T15:46:42.384Z,61.91
2023-05-13T15:49:10.555Z,62.37
2023-05-13T15:51:39.863Z,61.83
2023-05-13T15:54:07.758Z,62.10
2023-05-13T15:56:35.836Z,62.54
2023-05-13T15:59:03.898Z,62.06
2023-05-13T16:01:32.056Z,63.26
2023-05-13T16:03:59.995Z,65.09
2023-05-13T16:06:28.050Z,66.88
2023-05-13T16:08:57.408Z,68.00
2023-05-13T16:11:25.717Z,67.82
2023-05-13T16:13:53.670Z,65.49
2023-05-13T16:16:22.060Z,64.96
2023-05-13T16:18:50.504Z,66.48
2023-05-13T16:21:18.354Z,67.08
2023-05-13T16:23:46.286Z,66.80
2023-05-13T16:26:15.649Z,67.63
2023-05-13T16:28:43.634Z,67.93
2023-05-13T16:31:11.452Z,68.58
2023-05-13T16:33:39.290Z,68.92
2023-05-13T16:36:08.727Z,68.85
2023-05-13T16:38:36.582Z,66.70
2023-05-13T16:41:05.648Z,67.46
2023-05-13T16:43:37.454Z,68.26
2023-05-13T16:46:05.407Z,68.67
2023-05-13T16:48:33.414Z,67.23
2023-05-13T16:51:04.678Z,66.81
2023-05-13T16:53:34.482Z,66.55
2023-05-13T16:56:02.848Z,66.69
2023-05-13T16:58:30.717Z,66.71
2023-05-13T17:01:00.029Z,66.27
2023-05-13T17:03:28.100Z,66.14
2023-05-13T17:05:58.335Z,65.88
2023-05-13T17:08:26.392Z,65.78
2023-05-13T17:10:54.338Z,65.11
2023-05-13T17:13:22.820Z,64.94
2023-05-13T17:15:50.740Z,66.17
2023-05-13T17:18:22.514Z,65.83
2023-05-13T17:20:50.407Z,66.78
2023-05-13T17:23:18.515Z,67.38
2023-05-13T17:25:46.988Z,66.24
2023-05-13T17:28:14.937Z,65.67
2023-05-13T17:30:43.291Z,64.93
2023-05-13T17:33:13.574Z,65.20
2023-05-13T17:35:42.862Z,67.71
2023-05-13T17:38:10.798Z,68.68
2023-05-13T17:40:38.645Z,68.72
2023-05-13T17:43:06.557Z,68.43
2023-05-13T17:45:35.525Z,67.46
2023-05-13T17:48:03.487Z,66.40
2023-05-13T17:50:32.104Z,67.00
2023-05-13T17:53:01.708Z,67.25
2023-05-13T17:55:30.903Z,67.50
2023-05-13T17:57:59.735Z,67.72
2023-05-13T18:00:27.797Z,68.64
2023-05-13T18:02:55.773Z,68.17
2023-05-13T18:05:23.773Z,69.83
2023-05-13T18:07:51.860Z,70.29
2023-05-13T18:10:21.499Z,69.73
2023-05-13T18:12:52.668Z,69.13
2023-05-13T18:15:20.688Z,69.08
2023-05-13T18:17:48.553Z,69.30
2023-05-13T18:20:16.568Z,73.19
2023-05-13T18:22:44.541Z,75.42
2023-05-13T18:25:12.497Z,76.24
2023-05-13T18:27:44.475Z,76.04
2023-05-13T18:30:16.210Z,75.65
2023-05-13T18:32:44.102Z,75.38
2023-05-13T18:35:15.663Z,73.81
2023-05-13T18:37:43.470Z,74.01
2023-05-13T18:40:12.170Z,74.66
2023-05-13T18:42:40.009Z,75.14
2023-05-13T18:45:10.537Z,76.32
2023-05-13T18:47:38.392Z,77.50
2023-05-13T18:50:06.726Z,78.33
2023-05-13T18:52:34.514Z,78.49
2023-05-13T18:57:32.441Z,79.30
2023-05-13T19:00:02.410Z,80.28
2023-05-13T19:02:31.910Z,81.88
2023-05-13T19:05:00.089Z,81.13
2023-05-13T19:07:28.295Z,81.87
2023-05-13T19:09:56.200Z,81.56
2023-05-13T19:12:24.068Z,81.44
2023-05-13T19:14:51.900Z,80.88
2023-05-13T19:17:19.664Z,79.84
2023-05-13T19:19:48.848Z,79.72
2023-05-13T19:22:18.929Z,81.64
2023-05-13T19:24:46.783Z,82.69
2023-05-13T19:27:14.755Z,81.84
2023-05-13T19:29:42.603Z,81.27
2023-05-13T19:32:10.457Z,80.77
2023-05-13T19:34:40.352Z,81.07
2023-05-13T19:37:09.706Z,81.44
2023-05-13T19:39:37.581Z,80.14
2023-05-13T19:42:07.625Z,80.87
2023-05-13T19:44:35.726Z,81.75
2023-05-13T19:47:03.667Z,82.14
2023-05-13T19:49:33.974Z,82.26
2023-05-13T19:52:01.838Z,85.71
2023-05-13T19:54:31.041Z,87.21
2023-05-13T19:56:58.826Z,87.35
2023-05-13T19:59:27.580Z,86.61
2023-05-13T20:01:55.455Z,86.52
2023-05-13T20:04:23.325Z,85.70
2023-05-13T20:06:51.108Z,84.82
2023-05-13T20:09:18.929Z,83.28
2023-05-13T20:11:48.151Z,82.17
2023-05-13T20:14:17.075Z,82.42
2023-05-13T20:16:45.115Z,82.49
2023-05-13T20:19:12.939Z,81.89
2023-05-13T20:21:40.698Z,81.97
2023-05-13T20:24:08.651Z,83.07
2023-05-13T20:26:36.592Z,83.36
2023-05-13T20:29:05.930Z,83.16
2023-05-13T20:31:33.676Z,83.40
2023-05-13T20:34:03.282Z,84.33
2023-05-13T20:36:31.858Z,85.75
2023-05-13T20:38:59.694Z,86.27
2023-05-13T20:41:27.560Z,85.32
2023-05-13T20:43:55.406Z,84.51
2023-05-13T20:46:24.662Z,84.05
2023-05-13T20:48:53.462Z,87.40
2023-05-13T20:51:21.271Z,88.06
2023-05-13T20:53:48.992Z,86.42
2023-05-13T20:56:17.457Z,85.73
2023-05-13T20:58:45.330Z,85.56
2023-05-13T21:01:13.134Z,84.89
2023-05-13T21:03:42.392Z,83.91
2023-05-13T21:06:10.244Z,83.88
2023-05-13T21:08:40.062Z,84.23
2023-05-13T21:11:07.964Z,83.73
2023-05-13T21:13:36.016Z,83.33
2023-05-13T21:16:04.858Z,82.65
2023-05-13T21:18:34.067Z,82.66
2023-05-13T21:21:08.425Z,82.69
2023-05-13T21:23:39.851Z,82.77
2023-05-13T21:26:07.680Z,82.85
2023-05-13T21:28:35.600Z,83.26
2023-05-13T21:31:03.476Z,83.64
2023-05-13T21:33:31.399Z,84.00
2023-05-13T21:35:59.228Z,84.18
2023-05-13T21:38:28.491Z,83.52
2023-05-13T21:40:56.344Z,84.26
2023-05-13T21:43:24.197Z,83.59
2023-05-13T21:50:11.720Z,83.79
2023-05-13T21:52:39.699Z,83.70
2023-05-13T21:55:10.159Z,83.53
2023-05-13T21:57:38.007Z,84.39
2023-05-13T22:00:10.432Z,84.18
2023-05-13T22:02:44.043Z,83.80
2023-05-13T22:05:12.126Z,83.52
2023-05-13T22:07:40.330Z,83.19
2023-05-13T22:10:11.312Z,82.69
2023-05-13T22:12:39.351Z,83.44
2023-05-13T22:15:08.529Z,84.82
2023-05-13T22:17:36.717Z,85.29
2023-05-13T22:20:04.961Z,85.65
2023-05-13T22:22:32.846Z,85.54
2023-05-13T22:25:00.626Z,84.57
2023-05-13T22:27:29.786Z,84.37
2023-05-13T22:29:57.732Z,86.08
2023-05-13T22:32:25.812Z,86.49
2023-05-13T22:34:53.957Z,86.13
2023-05-13T22:37:21.884Z,86.59
2023-05-13T22:39:49.914Z,86.80
2023-05-13T22:42:17.900Z,87.49
2023-05-13T22:44:47.446Z,87.21
2023-05-13T22:47:15.438Z,86.56
2023-05-13T22:49:43.340Z,85.61
2023-05-13T22:52:11.152Z,85.92
2023-05-13T22:54:38.948Z,85.89
2023-05-13T22:57:06.846Z,85.74
2023-05-13T22:59:34.688Z,89.11
2023-05-13T23:02:04.681Z,89.40
2023-05-13T23:04:32.734Z,87.79
2023-05-13T23:07:00.632Z,87.73
2023-05-13T23:09:28.436Z,86.75
2023-05-13T23:11:56.179Z,86.67
2023-05-13T23:14:25.212Z,86.90
2023-05-13T23:16:53.064Z,86.88
2023-05-13T23:19:22.286Z,86.96
2023-05-13T23:21:50.032Z,87.11
2023-05-13T23:24:17.859Z,86.73
2023-05-13T23:26:47.406Z,87.32
2023-05-13T23:29:17.742Z,87.76
2023-05-13T23:31:45.566Z,87.68
2023-05-13T23:34:13.383Z,87.42
2023-05-13T23:36:42.525Z,87.72
2023-05-13T23:39:10.486Z,87.74
2023-05-13T23:41:38.349Z,88.11
2023-05-13T23:44:06.248Z,88.98
2023-05-13T23:46:33.989Z,89.25
2023-05-13T23:49:01.846Z,89.87
2023-05-13T23:51:29.626Z,89.53
2023-05-13T23:53:58.749Z,89.15
2023-05-13T23:56:26.686Z,89.10
2023-05-13T23:58:54.481Z,89.38
